Time;durP1;ratioP1;P1;durP2;ratioP2;P2;SDS_P1;SDS_P2;PMS_P1;PMS_P2;Temp;Humidity;BMP_temperature;BMP_pressure;BME280_temperature;BME280_humidity;BME280_pressure;Samples;Min_cycle;Max_cycle;Signal;HPM_P1;HPM_P2
2023/03/17 00:00:09;;;;;;;7.68;3.78;;;;;;;8.20;60.97;100688.09;5023381;28;20420;-58
2023/03/17 00:02:35;;;;;;;6.95;3.70;;;;;;;8.18;61.70;100696.16;5034754;28;20053;-58
2023/03/17 00:05:01;;;;;;;8.45;3.83;;;;;;;8.18;61.44;100704.09;5033727;28;20381;-62
2023/03/17 00:07:27;;;;;;;8.27;3.70;;;;;;;8.19;61.67;100704.94;5033491;28;20029;-58
2023/03/17 00:09:52;;;;;;;8.80;3.90;;;;;;;8.21;61.06;100702.97;5030052;28;20036;-58
2023/03/17 00:12:18;;;;;;;9.00;4.10;;;;;;;8.17;62.11;100691.88;5026026;28;20434;-57
2023/03/17 00:14:45;;;;;;;8.00;3.67;;;;;;;8.14;61.99;100705.34;5026270;28;20025;-57
2023/03/17 00:17:13;;;;;;;7.30;3.78;;;;;;;8.10;62.74;100698.72;5026422;28;20033;-58
2023/03/17 00:19:39;;;;;;;6.20;3.85;;;;;;;8.10;62.79;100682.88;5026833;28;20025;-61
2023/03/17 00:22:15;;;;;;;7.88;4.05;;;;;;;8.12;62.49;100675.63;5034366;28;20100;-58
2023/03/17 00:24:41;;;;;;;9.73;4.25;;;;;;;8.08;62.05;100663.69;5023407;28;20038;-58
2023/03/17 00:27:11;;;;;;;10.60;4.30;;;;;;;8.03;61.93;100650.09;5034193;28;20087;-59
2023/03/17 00:29:37;;;;;;;8.73;4.25;;;;;;;8.01;62.46;100654.72;5020498;28;20539;-58
2023/03/17 00:32:03;;;;;;;6.55;3.88;;;;;;;8.00;62.47;100655.69;5039278;28;20038;-58
2023/03/17 00:34:29;;;;;;;7.05;4.20;;;;;;;7.97;62.56;100651.53;5030293;28;20040;-58
2023/03/17 00:36:54;;;;;;;10.82;4.00;;;;;;;7.97;62.68;100653.34;5022297;28;20034;-58
2023/03/17 00:39:20;;;;;;;7.13;3.85;;;;;;;7.91;63.18;100652.94;5032635;28;20460;-57
2023/03/17 00:41:46;;;;;;;7.32;4.15;;;;;;;7.90;63.35;100656.56;5026691;28;20465;-58
2023/03/17 00:44:12;;;;;;;6.90;4.20;;;;;;;7.86;63.44;100655.22;5030462;28;20025;-58
2023/03/17 00:46:38;;;;;;;8.45;4.30;;;;;;;7.86;63.52;100652.59;5023487;28;20046;-59
2023/03/17 00:49:14;;;;;;;7.00;3.97;;;;;;;7.83;63.58;100644.94;5037949;28;20053;-58
2023/03/17 00:51:40;;;;;;;7.25;4.03;;;;;;;7.83;64.29;100649.41;5027633;28;20025;-59
2023/03/17 00:54:05;;;;;;;8.38;4.13;;;;;;;7.80;64.33;100651.34;5030278;28;20034;-57
2023/03/17 00:56:31;;;;;;;9.40;3.97;;;;;;;7.78;64.00;100641.91;5024698;28;20421;-57
2023/03/17 00:58:56;;;;;;;7.65;3.97;;;;;;;7.75;64.47;100647.50;5031140;28;20025;-59
2023/03/17 01:01:21;;;;;;;6.72;3.70;;;;;;;7.73;64.61;100644.16;5026709;28;20405;-59
2023/03/17 01:03:47;;;;;;;8.27;4.00;;;;;;;7.71;64.66;100648.78;5022546;28;20424;-58
2023/03/17 01:06:14;;;;;;;6.90;3.75;;;;;;;7.67;64.59;100641.16;5032981;28;20040;-58
2023/03/17 01:08:40;;;;;;;7.88;3.90;;;;;;;7.65;65.10;100643.09;5033415;28;20026;-60
2023/03/17 01:11:06;;;;;;;7.55;3.95;;;;;;;7.59;65.51;100641.06;5026708;28;20381;-59
2023/03/17 01:13:31;;;;;;;11.23;4.10;;;;;;;7.62;65.45;100642.56;5030651;28;20037;-59
2023/03/17 01:15:56;;;;;;;5.68;3.65;;;;;;;7.60;65.35;100640.06;5029006;28;20017;-57
2023/03/17 01:18:22;;;;;;;6.60;4.20;;;;;;;7.57;65.86;100643.03;5031320;28;20033;-58
2023/03/17 01:20:49;;;;;;;5.88;3.85;;;;;;;7.54;65.62;100640.66;5032177;28;20029;-58
2023/03/17 01:23:15;;;;;;;6.60;3.88;;;;;;;7.51;66.20;100640.97;5026153;28;20022;-58
2023/03/17 01:25:42;;;;;;;8.43;4.10;;;;;;;7.45;66.06;100626.53;5039372;28;20039;-58
2023/03/17 01:28:13;;;;;;;6.32;3.83;;;;;;;7.39;66.60;100633.25;5038961;28;20061;-58
2023/03/17 01:30:39;;;;;;;7.40;3.95;;;;;;;7.36;66.39;100627.44;5029265;28;20079;-59
2023/03/17 01:33:10;;;;;;;8.32;4.20;;;;;;;7.29;67.66;100627.16;5024524;28;20041;-58
2023/03/17 01:35:37;;;;;;;8.05;3.92;;;;;;;7.26;67.46;100632.75;5044543;28;20029;-58
2023/03/17 01:38:03;;;;;;;9.65;3.92;;;;;;;7.24;67.69;100629.41;5030188;28;20052;-58
2023/03/17 01:40:34;;;;;;;7.72;4.25;;;;;;;7.22;67.95;100626.09;5037721;28;20117;-58
2023/03/17 01:43:12;;;;;;;6.50;3.85;;;;;;;7.18;67.71;100619.44;5039125;28;20029;-57
2023/03/17 01:46:15;;;;;;;8.05;4.10;;;;;;;7.21;67.25;100617.31;5028389;28;20052;-57
2023/03/17 01:48:50;;;;;;;9.88;4.22;;;;;;;7.15;66.93;100614.47;5036233;28;20042;-60
2023/03/17 01:51:39;;;;;;;7.90;4.30;;;;;;;7.12;67.49;100621.66;5034228;28;20033;-58
2023/03/17 01:54:09;;;;;;;8.30;4.20;;;;;;;7.14;67.49;100618.88;5035844;28;20121;-57
2023/03/17 01:56:36;;;;;;;8.20;4.10;;;;;;;7.17;67.04;100617.78;5026502;28;20021;-58
2023/03/17 01:59:06;;;;;;;8.55;4.15;;;;;;;7.16;67.13;100610.84;5032040;28;20068;-59
2023/03/17 02:01:42;;;;;;;7.40;3.95;;;;;;;7.17;67.45;100608.06;5018603;28;20021;-58
2023/03/17 02:04:10;;;;;;;8.65;4.15;;;;;;;7.13;66.87;100602.25;5027441;28;20112;-59
2023/03/17 02:06:35;;;;;;;8.35;4.03;;;;;;;7.15;66.93;100603.91;5028479;28;20084;-57
2023/03/17 02:09:01;;;;;;;9.38;4.00;;;;;;;7.13;66.38;100596.97;5036502;28;20030;-59
2023/03/17 02:11:27;;;;;;;8.95;4.20;;;;;;;7.15;66.56;100582.81;5024503;28;20028;-58
2023/03/17 02:13:52;;;;;;;7.60;4.05;;;;;;;7.16;66.95;100589.75;5033799;28;20036;-57
2023/03/17 02:16:19;;;;;;;7.30;4.25;;;;;;;7.15;66.43;100581.00;5039139;28;20087;-58
2023/03/17 02:18:44;;;;;;;9.90;4.28;;;;;;;7.18;66.36;100587.78;5022144;28;20112;-58
2023/03/17 02:21:30;;;;;;;9.48;4.30;;;;;;;7.18;65.97;100583.34;5037453;28;20186;-59
2023/03/17 02:23:57;;;;;;;9.52;4.47;;;;;;;7.16;66.66;100581.84;5034457;28;20025;-58
2023/03/17 02:26:24;;;;;;;11.00;4.40;;;;;;;7.17;65.90;100580.84;5030198;28;20029;-57
2023/03/17 02:28:50;;;;;;;10.30;4.50;;;;;;;7.19;66.66;100573.63;5030595;28;20040;-57
2023/03/17 02:31:16;;;;;;;9.85;4.50;;;;;;;7.18;66.12;100572.81;5026526;28;20476;-58
2023/03/17 02:33:41;;;;;;;12.07;4.40;;;;;;;7.16;66.55;100569.50;5031463;28;20061;-58
2023/03/17 02:36:08;;;;;;;9.57;4.28;;;;;;;7.20;65.52;100570.03;5021896;28;20036;-59
2023/03/17 02:38:34;;;;;;;9.85;4.15;;;;;;;7.21;66.04;100561.94;5028097;28;20076;-59
2023/03/17 02:40:59;;;;;;;8.82;4.03;;;;;;;7.23;66.38;100564.44;5019308;28;20025;-58
2023/03/17 02:43:25;;;;;;;10.77;4.30;;;;;;;7.25;65.92;100551.94;5031993;28;20025;-58
2023/03/17 02:45:50;;;;;;;7.80;4.10;;;;;;;7.23;65.99;100561.81;5027426;28;20040;-57
2023/03/17 02:48:16;;;;;;;10.80;4.10;;;;;;;7.25;65.71;100557.22;5035289;28;20418;-57
2023/03/17 02:50:42;;;;;;;12.43;4.50;;;;;;;7.24;65.46;100545.84;5025305;28;20033;-57
2023/03/17 02:53:07;;;;;;;9.95;4.13;;;;;;;7.23;65.63;100546.81;5026791;28;20060;-58
2023/03/17 02:55:32;;;;;;;10.63;4.10;;;;;;;7.25;65.02;100554.56;5027168;28;20029;-58
2023/03/17 02:57:57;;;;;;;9.43;4.28;;;;;;;7.25;65.55;100551.94;5022344;28;20033;-58
2023/03/17 03:00:23;;;;;;;9.85;3.88;;;;;;;7.23;66.27;100540.72;5030107;28;20060;-58
2023/03/17 03:02:49;;;;;;;9.73;4.10;;;;;;;7.27;65.42;100550.81;5037218;28;20103;-58
2023/03/17 03:05:14;;;;;;;7.05;3.88;;;;;;;7.26;64.68;100553.63;5028233;28;20033;-58
2023/03/17 03:07:39;;;;;;;9.68;4.40;;;;;;;7.25;64.95;100568.59;5025507;28;20037;-58
2023/03/17 03:10:05;;;;;;;10.05;4.18;;;;;;;7.25;65.40;100565.97;5026079;28;20045;-58
2023/03/17 03:12:32;;;;;;;8.52;3.80;;;;;;;7.21;66.05;100558.50;5032462;28;20037;-57
2023/03/17 03:14:57;;;;;;;6.97;3.58;;;;;;;7.25;65.70;100551.94;5028122;28;20060;-57
2023/03/17 03:17:23;;;;;;;9.57;4.15;;;;;;;7.26;65.33;100548.34;5021067;28;20045;-59
2023/03/17 03:19:49;;;;;;;8.52;3.72;;;;;;;7.27;64.62;100555.28;5034935;28;20043;-57
2023/03/17 03:22:14;;;;;;;9.32;3.95;;;;;;;7.25;65.44;100557.22;5029690;28;20025;-58
2023/03/17 03:24:40;;;;;;;10.57;3.85;;;;;;;7.25;65.04;100567.75;5034257;28;20041;-58
2023/03/17 03:27:06;;;;;;;9.35;3.67;;;;;;;7.26;65.10;100569.44;5024903;28;20025;-57
2023/03/17 03:29:31;;;;;;;6.38;3.53;;;;;;;7.26;65.22;100569.44;5031945;28;20021;-59
2023/03/17 03:31:56;;;;;;;7.13;3.67;;;;;;;7.27;65.24;100565.81;5038266;28;20036;-58
2023/03/17 03:34:21;;;;;;;8.70;3.88;;;;;;;7.29;64.19;100558.59;5030645;28;20037;-58
2023/03/17 03:36:47;;;;;;;9.65;3.60;;;;;;;7.27;64.95;100557.91;5018371;28;20088;-58
2023/03/17 03:39:12;;;;;;;5.88;3.25;;;;;;;7.29;64.53;100565.69;5018246;28;20036;-58
2023/03/17 03:41:37;;;;;;;9.15;3.47;;;;;;;7.26;64.47;100585.25;5040927;28;20051;-57
2023/03/17 03:44:02;;;;;;;8.70;3.70;;;;;;;7.26;64.87;100570.25;5024882;28;20044;-58
2023/03/17 03:46:28;;;;;;;6.00;3.53;;;;;;;7.27;65.10;100568.47;5030870;28;20047;-57
2023/03/17 03:48:54;;;;;;;7.93;3.65;;;;;;;7.25;64.76;100583.59;5035044;28;20120;-57
2023/03/17 03:51:19;;;;;;;7.28;3.58;;;;;;;7.25;64.80;100583.59;5035018;28;20045;-58
2023/03/17 03:53:47;;;;;;;7.78;3.70;;;;;;;7.23;65.02;100575.00;5022971;28;20073;-58
2023/03/17 03:56:12;;;;;;;9.10;3.70;;;;;;;7.22;64.35;100582.09;5032937;28;20028;-57
2023/03/17 03:58:37;;;;;;;8.27;3.63;;;;;;;7.21;64.61;100588.31;5029198;28;20029;-59
2023/03/17 04:01:06;;;;;;;8.50;3.80;;;;;;;7.17;64.60;100592.25;5046257;28;20044;-58
2023/03/17 04:03:31;;;;;;;8.68;3.70;;;;;;;7.16;64.74;100600.28;5029492;28;20048;-58
2023/03/17 04:05:57;;;;;;;8.05;3.50;;;;;;;7.16;65.88;100597.66;5031730;28;20030;-59
2023/03/17 04:08:22;;;;;;;11.52;3.83;;;;;;;7.13;66.10;100593.50;5034593;28;20057;-57
2023/03/17 04:10:47;;;;;;;9.90;3.90;;;;;;;7.11;65.59;100588.38;5029130;28;20033;-58
2023/03/17 04:13:13;;;;;;;9.32;4.05;;;;;;;7.09;64.95;100595.59;5037620;28;20037;-59
2023/03/17 04:15:38;;;;;;;6.97;3.63;;;;;;;7.07;65.23;100594.91;5024209;28;20036;-58
2023/03/17 04:18:04;;;;;;;8.25;4.00;;;;;;;7.06;66.13;100590.59;5030512;28;20057;-57
2023/03/17 04:20:29;;;;;;;11.50;4.07;;;;;;;7.04;65.20;100597.84;5027966;28;20103;-58
2023/03/17 04:22:55;;;;;;;12.35;4.10;;;;;;;7.05;65.17;100599.50;5018012;28;20034;-58
2023/03/17 04:25:20;;;;;;;10.48;4.10;;;;;;;7.02;65.86;100589.25;5025157;28;20523;-58
2023/03/17 04:27:45;;;;;;;11.20;4.20;;;;;;;7.02;65.70;100604.22;5021711;28;20037;-59
2023/03/17 04:30:15;;;;;;;10.73;3.90;;;;;;;7.00;66.19;100599.09;5027055;28;20083;-58
2023/03/17 04:32:41;;;;;;;13.40;4.00;;;;;;;6.98;66.22;100587.88;5032230;28;20671;-58
2023/03/17 04:35:13;;;;;;;10.23;4.10;;;;;;;6.91;66.18;100586.78;5022441;28;20021;-58
2023/03/17 04:37:39;;;;;;;12.60;4.38;;;;;;;6.96;65.92;100592.47;5025816;28;20036;-58
2023/03/17 04:40:08;;;;;;;14.15;4.20;;;;;;;6.91;65.57;100589.41;5020029;28;20405;-58
2023/03/17 04:42:35;;;;;;;13.15;4.30;;;;;;;6.92;66.80;100599.81;5025264;28;20032;-58
2023/03/17 04:45:01;;;;;;;15.18;4.40;;;;;;;6.90;66.67;100600.94;5024594;28;20040;-60
2023/03/17 04:47:27;;;;;;;14.68;4.50;;;;;;;6.90;67.17;100600.94;5018829;28;20030;-58
2023/03/17 04:49:52;;;;;;;15.43;4.45;;;;;;;6.90;66.79;100595.66;5023281;28;20500;-57
2023/03/17 04:52:18;;;;;;;11.25;4.40;;;;;;;6.91;66.73;100589.41;5022282;28;20065;-58
2023/03/17 04:54:43;;;;;;;17.35;4.90;;;;;;;6.90;66.55;100590.41;5021973;28;20038;-58
2023/03/17 04:57:09;;;;;;;16.70;4.50;;;;;;;6.90;66.70;100596.47;5019956;28;20029;-59
2023/03/17 04:59:34;;;;;;;14.57;4.60;;;;;;;6.91;66.27;100594.69;5021622;28;20042;-58
2023/03/17 05:02:01;;;;;;;14.75;4.30;;;;;;;6.88;66.70;100587.91;5021521;28;20054;-58
2023/03/17 05:04:26;;;;;;;15.20;4.43;;;;;;;6.90;67.11;100579.84;5024360;28;20466;-59
2023/03/17 05:06:51;;;;;;;10.00;3.92;;;;;;;6.86;66.68;100569.59;5017599;28;20037;-59
2023/03/17 05:09:17;;;;;;;16.58;4.03;;;;;;;6.88;67.19;100571.25;5023650;28;20029;-58
2023/03/17 05:11:42;;;;;;;11.95;4.47;;;;;;;6.85;66.73;100567.94;5020718;28;20033;-59
2023/03/17 05:14:07;;;;;;;11.23;4.10;;;;;;;6.89;67.71;100562.34;5019776;28;20116;-59
2023/03/17 05:16:33;;;;;;;14.07;4.68;;;;;;;6.86;67.73;100559.03;5021755;28;20038;-58
2023/03/17 05:18:58;;;;;;;12.60;4.40;;;;;;;6.86;67.19;100569.59;5027541;28;20029;-60
2023/03/17 05:21:23;;;;;;;15.68;4.22;;;;;;;6.86;67.25;100580.13;5018120;28;20040;-59
2023/03/17 05:23:49;;;;;;;12.98;4.05;;;;;;;6.85;67.79;100573.19;5019313;28;20029;-59
2023/03/17 05:26:15;;;;;;;16.70;4.35;;;;;;;6.86;67.13;100577.50;5023658;28;20036;-59
2023/03/17 05:28:40;;;;;;;12.30;4.20;;;;;;;6.86;67.54;100587.22;5021751;28;20465;-60
2023/03/17 05:31:05;;;;;;;12.13;3.90;;;;;;;6.87;67.84;100586.25;5021447;28;20462;-59
2023/03/17 05:33:31;;;;;;;12.60;3.95;;;;;;;6.90;67.33;100595.66;5018829;28;20061;-59
2023/03/17 05:35:57;;;;;;;12.07;4.07;;;;;;;6.90;67.54;100585.13;5021814;28;20484;-59
2023/03/17 05:38:22;;;;;;;13.70;4.40;;;;;;;6.90;66.89;100590.41;5026233;28;20029;-59
2023/03/17 05:40:50;;;;;;;15.65;4.60;;;;;;;6.89;67.23;100599.25;5027123;28;20017;-60
2023/03/17 05:43:15;;;;;;;12.38;4.43;;;;;;;6.88;66.91;100587.06;5025734;28;20057;-59
2023/03/17 05:45:41;;;;;;;11.57;4.28;;;;;;;6.88;67.35;100587.06;5025990;28;20111;-58
2023/03/17 05:48:06;;;;;;;13.77;4.50;;;;;;;6.88;67.63;100581.78;5021940;28;20426;-60
2023/03/17 05:50:32;;;;;;;9.85;4.00;;;;;;;6.86;67.49;100577.50;5019339;28;20036;-60
2023/03/17 05:52:57;;;;;;;13.27;4.50;;;;;;;6.88;68.39;100584.41;5018717;28;20044;-59
2023/03/17 05:55:23;;;;;;;12.07;3.92;;;;;;;6.87;67.81;100583.59;5018170;28;20041;-59
2023/03/17 05:57:48;;;;;;;15.55;4.38;;;;;;;6.86;68.74;100577.50;5019053;28;20032;-60
2023/03/17 06:00:15;;;;;;;14.98;4.40;;;;;;;6.85;68.00;100578.47;5019872;28;20443;-59
2023/03/17 06:02:40;;;;;;;17.70;4.53;;;;;;;6.83;68.26;100579.59;5022861;28;20033;-60
2023/03/17 06:05:07;;;;;;;15.05;4.53;;;;;;;6.80;67.81;100574.59;5018438;28;20104;-60
2023/03/17 06:07:33;;;;;;;10.38;4.30;;;;;;;6.79;68.68;100579.03;5024185;28;20548;-59
2023/03/17 06:09:59;;;;;;;14.25;4.40;;;;;;;6.77;69.16;100581.00;5017853;28;20041;-59
2023/03/17 06:12:25;;;;;;;11.43;3.85;;;;;;;6.77;68.55;100578.38;5018822;28;20029;-59
2023/03/17 06:14:50;;;;;;;11.18;3.92;;;;;;;6.78;68.93;100577.38;5021948;28;20117;-60
2023/03/17 06:17:15;;;;;;;11.57;4.05;;;;;;;6.77;68.77;100581.00;5021260;28;20068;-59
2023/03/17 06:19:41;;;;;;;12.98;4.10;;;;;;;6.80;68.50;100582.50;5013945;28;20026;-60
2023/03/17 06:22:06;;;;;;;10.50;4.18;;;;;;;6.78;68.69;100582.66;5016643;28;20032;-60
2023/03/17 06:24:32;;;;;;;15.88;4.10;;;;;;;6.79;68.77;100589.59;5018843;28;20382;-59
2023/03/17 06:26:58;;;;;;;9.90;4.03;;;;;;;6.80;68.70;100583.34;5020902;28;20033;-60
2023/03/17 06:29:24;;;;;;;9.13;3.72;;;;;;;6.82;69.23;100593.75;5023893;28;20036;-62
2023/03/17 06:31:50;;;;;;;12.95;3.90;;;;;;;6.83;69.24;100585.69;5019448;28;20448;-60
2023/03/17 06:34:19;;;;;;;14.02;4.18;;;;;;;6.90;69.30;100593.03;5025577;28;20041;-60
2023/03/17 06:36:45;;;;;;;10.18;4.53;;;;;;;6.91;69.49;100594.69;5021522;28;20083;-61
2023/03/17 06:39:12;;;;;;;13.77;4.30;;;;;;;6.92;68.59;100588.44;5020185;28;20026;-59
2023/03/17 06:41:37;;;;;;;9.70;4.00;;;;;;;6.95;68.99;100582.88;5021399;28;20030;-61
2023/03/17 06:44:04;;;;;;;11.20;4.32;;;;;;;6.98;68.87;100578.16;5017055;28;20036;-60
2023/03/17 06:46:30;;;;;;;12.98;4.10;;;;;;;7.02;67.92;100583.97;5016714;28;20033;-59
2023/03/17 06:48:56;;;;;;;13.32;4.15;;;;;;;7.06;68.69;100585.31;5019295;28;20045;-60
2023/03/17 06:51:21;;;;;;;13.73;4.30;;;;;;;7.12;68.27;100579.47;5022002;28;20389;-60
2023/03/17 06:53:46;;;;;;;13.60;4.45;;;;;;;7.13;68.99;100580.31;5021077;28;20057;-59
2023/03/17 06:56:11;;;;;;;13.57;4.30;;;;;;;7.16;68.88;100584.47;5017214;28;20418;-60
2023/03/17 06:58:37;;;;;;;13.02;4.28;;;;;;;7.20;68.35;100580.56;5022215;28;20036;-60
2023/03/17 07:01:03;;;;;;;9.68;4.03;;;;;;;7.25;68.47;100583.59;5019500;28;20038;-60
2023/03/17 07:03:29;;;;;;;12.57;4.22;;;;;;;7.29;68.65;100590.22;5022041;28;20052;-59
2023/03/17 07:05:55;;;;;;;13.02;4.57;;;;;;;7.33;68.68;100585.50;5023163;28;20045;-59
2023/03/17 07:08:20;;;;;;;10.63;4.47;;;;;;;7.37;68.41;100593.00;5023896;28;20082;-58
2023/03/17 07:10:46;;;;;;;11.13;4.45;;;;;;;7.42;68.01;100589.06;5023074;28;20029;-59
2023/03/17 07:13:11;;;;;;;13.13;4.53;;;;;;;7.45;68.13;100584.31;5026074;28;20040;-59
2023/03/17 07:15:37;;;;;;;12.63;4.03;;;;;;;7.51;67.88;100586.38;5026138;28;20112;-59
2023/03/17 07:18:05;;;;;;;14.77;4.43;;;;;;;7.53;68.40;100586.22;5018013;28;20543;-60
2023/03/17 07:20:31;;;;;;;11.52;4.03;;;;;;;7.60;67.60;100592.56;5021492;28;20369;-59
2023/03/17 07:22:57;;;;;;;12.82;4.57;;;;;;;7.65;67.78;100600.88;5019675;28;20034;-60
2023/03/17 07:25:22;;;;;;;13.43;4.50;;;;;;;7.70;67.53;100594.34;5018067;28;20044;-58
2023/03/17 07:27:50;;;;;;;18.67;4.53;;;;;;;7.76;67.09;100586.63;5022007;28;20469;-60
2023/03/17 07:30:17;;;;;;;14.63;4.03;;;;;;;7.80;67.22;100584.56;5019587;28;20042;-59
2023/03/17 07:32:44;;;;;;;11.95;4.97;;;;;;;7.86;67.19;100581.31;5019821;28;20056;-59
2023/03/17 07:35:10;;;;;;;13.80;4.07;;;;;;;7.91;66.71;100584.31;5024461;28;20030;-59
2023/03/17 07:37:35;;;;;;;13.18;4.35;;;;;;;7.94;67.23;100565.53;5024206;28;20041;-61
2023/03/17 07:40:01;;;;;;;12.27;4.25;;;;;;;8.00;66.74;100572.00;5026882;28;20075;-58
2023/03/17 07:42:27;;;;;;;10.50;4.25;;;;;;;8.06;66.28;100570.59;5023844;28;20030;-60
2023/03/17 07:44:53;;;;;;;11.43;4.38;;;;;;;8.11;67.21;100572.78;5028005;28;20056;-56
2023/03/17 07:47:18;;;;;;;10.27;4.40;;;;;;;8.15;66.25;100569.66;5025321;28;20061;-56
2023/03/17 07:49:43;;;;;;;13.73;4.28;;;;;;;8.19;65.44;100576.31;5026101;28;20054;-56
2023/03/17 07:52:09;;;;;;;11.60;4.40;;;;;;;8.25;65.85;100581.97;5031208;28;20038;-56
2023/03/17 07:54:36;;;;;;;13.55;4.72;;;;;;;8.29;65.40;100581.50;5026340;28;20112;-58
2023/03/17 07:57:02;;;;;;;13.30;4.60;;;;;;;8.34;65.32;100575.78;5023607;28;20492;-57
2023/03/17 07:59:27;;;;;;;9.93;4.40;;;;;;;8.39;65.59;100586.69;5023124;28;20037;-56
2023/03/17 08:01:53;;;;;;;10.10;4.25;;;;;;;8.44;65.42;100600.28;5023332;28;20026;-57
2023/03/17 08:04:18;;;;;;;7.75;4.05;;;;;;;8.47;65.33;100600.00;5023981;28;20525;-56
2023/03/17 08:06:45;;;;;;;10.65;3.95;;;;;;;8.53;64.74;100589.81;5026404;28;20408;-56
2023/03/17 08:09:12;;;;;;;10.18;3.78;;;;;;;8.58;64.69;100584.88;5020656;28;20409;-56
2023/03/17 08:11:37;;;;;;;9.50;3.80;;;;;;;8.62;64.03;100578.31;5024999;28;20029;-57
2023/03/17 08:14:04;;;;;;;10.07;4.32;;;;;;;8.66;65.06;100577.03;5028223;28;20068;-56
2023/03/17 08:16:30;;;;;;;13.43;4.35;;;;;;;8.68;64.40;100582.97;5022382;28;20022;-57
2023/03/17 08:18:57;;;;;;;9.95;3.80;;;;;;;8.74;64.15;100585.00;5024325;28;20052;-57
2023/03/17 08:21:22;;;;;;;12.57;4.10;;;;;;;8.81;64.15;100585.22;5027575;28;20351;-57
2023/03/17 08:23:48;;;;;;;10.73;3.83;;;;;;;8.84;63.81;100590.19;5021009;28;20040;-58
2023/03/17 08:26:13;;;;;;;10.07;3.95;;;;;;;8.89;64.16;100595.03;5028924;28;20033;-59
2023/03/17 08:28:39;;;;;;;13.60;4.05;;;;;;;8.95;63.85;100591.75;5018980;28;20374;-58
2023/03/17 08:31:11;;;;;;;8.90;4.28;;;;;;;9.02;64.27;100587.47;5021934;28;20139;-58
2023/03/17 08:33:37;;;;;;;8.37;4.20;;;;;;;9.13;62.89;100582.91;5018743;28;20033;-57
2023/03/17 08:36:05;;;;;;;10.77;4.00;;;;;;;9.15;62.96;100579.13;5023274;28;20095;-60
2023/03/17 08:38:31;;;;;;;10.75;4.03;;;;;;;9.23;62.88;100583.59;5023027;28;20033;-60
2023/03/17 08:41:01;;;;;;;9.23;4.13;;;;;;;9.31;63.09;100574.06;5030375;28;20025;-60
2023/03/17 08:43:27;;;;;;;11.75;3.92;;;;;;;9.34;63.32;100563.13;5032031;28;20462;-60
2023/03/17 08:46:01;;;;;;;10.70;4.00;;;;;;;9.40;62.94;100562.50;5030582;28;20033;-60
2023/03/17 08:48:26;;;;;;;8.88;4.25;;;;;;;9.43;63.21;100572.78;5023206;28;20098;-57
2023/03/17 08:50:52;;;;;;;11.20;4.13;;;;;;;9.51;63.20;100579.88;5024384;28;20026;-57
2023/03/17 08:53:18;;;;;;;8.38;3.80;;;;;;;9.59;62.69;100589.69;5031812;28;20068;-58
2023/03/17 08:55:43;;;;;;;7.65;4.15;;;;;;;9.68;62.61;100591.38;5034600;28;20034;-57
2023/03/17 08:58:09;;;;;;;7.65;3.85;;;;;;;9.73;61.89;100583.78;5019868;28;20045;-57
2023/03/17 09:00:34;;;;;;;6.95;3.92;;;;;;;9.81;61.90;100575.84;5031537;28;20029;-58
2023/03/17 09:03:00;;;;;;;9.93;3.95;;;;;;;9.87;62.12;100573.53;5027204;28;20092;-58
2023/03/17 09:05:25;;;;;;;8.88;4.10;;;;;;;9.93;62.31;100568.38;5027900;28;20465;-57
2023/03/17 09:07:51;;;;;;;9.15;3.95;;;;;;;10.00;62.03;100565.94;5028500;28;20400;-57
2023/03/17 09:10:21;;;;;;;10.05;4.05;;;;;;;10.03;62.48;100568.25;5038597;28;20061;-57
2023/03/17 09:12:47;;;;;;;7.78;3.92;;;;;;;10.13;61.96;100567.25;5025182;28;20057;-58
2023/03/17 09:15:12;;;;;;;6.07;4.10;;;;;;;10.16;62.09;100564.28;5045708;28;20068;-58
2023/03/17 09:17:38;;;;;;;8.45;4.07;;;;;;;10.19;61.97;100578.03;5029334;28;20116;-61
2023/03/17 09:20:06;;;;;;;7.68;3.97;;;;;;;10.26;61.28;100567.59;5028159;28;20037;-60
2023/03/17 09:22:31;;;;;;;10.00;4.22;;;;;;;10.33;61.18;100565.94;5037247;28;20025;-61
2023/03/17 09:24:57;;;;;;;9.57;4.10;;;;;;;10.36;62.55;100568.25;5033522;28;20041;-58
2023/03/17 09:27:22;;;;;;;8.38;4.18;;;;;;;10.42;61.71;100572.03;5034707;28;20083;-58
2023/03/17 09:29:47;;;;;;;8.90;4.25;;;;;;;10.53;62.00;100584.19;5037898;28;20084;-57
2023/03/17 09:32:12;;;;;;;9.00;4.00;;;;;;;10.58;62.42;100576.56;5036463;28;20026;-56
2023/03/17 09:34:38;;;;;;;10.93;4.40;;;;;;;10.63;62.06;100563.63;5033053;28;20093;-58
2023/03/17 09:37:03;;;;;;;9.43;4.10;;;;;;;10.74;61.92;100553.63;5014927;28;20029;-59
2023/03/17 09:39:29;;;;;;;9.77;4.22;;;;;;;10.82;61.52;100547.50;5024598;28;20100;-57
2023/03/17 09:41:55;;;;;;;9.45;4.18;;;;;;;10.88;61.53;100555.59;5024757;28;20045;-58
2023/03/17 09:44:46;;;;;;;13.27;4.25;;;;;;;10.87;62.07;100551.28;5020392;28;20041;-58
2023/03/17 09:47:36;;;;;;;14.23;4.28;;;;;;;10.92;61.69;100561.38;5031321;28;20037;-57
2023/03/17 09:50:07;;;;;;;11.25;4.18;;;;;;;10.94;60.93;100564.69;5029235;28;20049;-57
2023/03/17 09:52:33;;;;;;;8.10;4.10;;;;;;;10.98;61.88;100566.00;5034618;28;20379;-59
2023/03/17 09:55:02;;;;;;;9.80;4.20;;;;;;;11.03;61.55;100570.78;5032027;28;20036;-58
2023/03/17 09:57:36;;;;;;;10.73;4.13;;;;;;;11.03;60.63;100573.44;5026389;28;20113;-57
2023/03/17 10:00:13;;;;;;;8.30;4.10;;;;;;;11.05;61.39;100587.38;5026477;28;20053;-57
2023/03/17 10:02:39;;;;;;;9.43;4.30;;;;;;;11.05;60.90;100587.38;5021125;28;20029;-57
2023/03/17 10:05:23;;;;;;;7.53;4.22;;;;;;;11.05;62.23;100587.38;5023469;28;20069;-60
2023/03/17 10:07:59;;;;;;;7.32;4.03;;;;;;;11.05;62.28;100597.16;5029488;28;20190;-57
2023/03/17 10:10:48;;;;;;;8.52;4.00;;;;;;;11.06;61.74;100582.91;5022154;28;20029;-58
2023/03/17 10:13:31;;;;;;;10.18;4.05;;;;;;;11.11;62.32;100584.03;5025488;28;20057;-58
2023/03/17 10:16:05;;;;;;;7.85;3.63;;;;;;;11.10;62.52;100594.84;5031560;28;20448;-58
2023/03/17 10:18:45;;;;;;;7.45;4.05;;;;;;;11.11;63.29;100615.88;5032365;28;20381;-60
2023/03/17 10:21:16;;;;;;;6.70;3.92;;;;;;;11.14;62.55;100612.88;5025925;28;20038;-59
2023/03/17 10:23:43;;;;;;;8.05;4.20;;;;;;;11.21;62.28;100606.91;5030332;28;20029;-59
2023/03/17 10:26:22;;;;;;;7.07;3.80;;;;;;;11.30;62.20;100616.50;5036559;28;20044;-58
2023/03/17 10:28:47;;;;;;;7.50;4.40;;;;;;;11.38;61.46;100624.41;5015986;28;20036;-59
2023/03/17 10:31:17;;;;;;;7.22;4.10;;;;;;;11.53;63.32;100619.22;5030641;28;20428;-62
2023/03/17 10:33:52;;;;;;;8.98;4.50;;;;;;;11.67;63.29;100617.66;5033209;28;20376;-59
2023/03/17 10:36:33;;;;;;;16.77;9.52;;;;;;;11.82;62.72;100619.56;5031918;28;20033;-59
2023/03/17 10:39:04;;;;;;;6.07;3.97;;;;;;;11.92;61.76;100614.84;5022275;28;20390;-60
2023/03/17 10:41:31;;;;;;;10.25;4.05;;;;;;;12.02;62.96;100600.50;5019817;28;20091;-60
2023/03/17 10:43:58;;;;;;;9.30;3.72;;;;;;;12.11;62.57;100596.81;5028215;28;20033;-58
2023/03/17 10:46:25;;;;;;;20.83;10.05;;;;;;;12.25;62.20;100611.16;5030461;28;20099;-61
2023/03/17 10:49:01;;;;;;;10.32;4.97;;;;;;;12.35;61.67;100605.59;5029514;28;20076;-59
2023/03/17 10:51:30;;;;;;;9.50;4.40;;;;;;;12.43;61.49;100602.88;5023259;28;20033;-59
2023/03/17 10:53:59;;;;;;;9.15;4.80;;;;;;;12.58;63.24;100608.22;5019254;28;20040;-59
2023/03/17 10:56:28;;;;;;;8.52;3.97;;;;;;;12.65;58.92;100597.69;5031086;28;20109;-60
2023/03/17 10:58:54;;;;;;;8.80;3.92;;;;;;;12.71;58.92;100599.63;5023418;28;20476;-58
2023/03/17 11:01:26;;;;;;;8.63;4.47;;;;;;;12.82;61.76;100597.53;5033909;28;20026;-61
2023/03/17 11:03:52;;;;;;;7.90;4.40;;;;;;;12.85;62.88;100597.16;5030782;28;20091;-60
2023/03/17 11:06:25;;;;;;;8.20;4.07;;;;;;;12.86;60.40;100594.31;5025636;28;20453;-60
2023/03/17 11:08:53;;;;;;;8.73;4.15;;;;;;;12.90;61.78;100584.13;5036010;28;20034;-59
2023/03/17 11:11:28;;;;;;;7.65;3.90;;;;;;;13.04;63.35;100591.28;5032769;28;20045;-60
2023/03/17 11:14:25;;;;;;;9.13;4.35;;;;;;;13.13;61.66;100593.88;5034773;28;20036;-59
2023/03/17 11:17:01;;;;;;;9.23;4.10;;;;;;;13.21;59.80;100580.44;5019576;28;20385;-59
2023/03/17 11:19:56;;;;;;;8.20;4.00;;;;;;;13.23;59.80;100578.41;5037569;28;20094;-60
2023/03/17 11:22:36;;;;;;;6.18;4.22;;;;;;;13.28;59.45;100576.03;5030545;28;20068;-59
2023/03/17 11:25:05;;;;;;;8.07;3.92;;;;;;;13.38;59.18;100574.91;5035639;28;20045;-60
2023/03/17 11:27:34;;;;;;;7.28;4.35;;;;;;;13.32;59.36;100574.66;5025494;28;20392;-60
2023/03/17 11:30:09;;;;;;;9.63;4.63;;;;;;;13.44;60.07;100574.16;5024491;28;20034;-60